createdAt,value
2019-01-30T00:01:45.821Z,2.90
2019-01-30T00:04:15.913Z,2.90
2019-01-30T00:06:46.929Z,2.90
2019-01-30T00:09:16.732Z,2.90
2019-01-30T00:11:46.668Z,2.90
2019-01-30T00:14:16.544Z,2.90
2019-01-30T00:16:47.448Z,2.90
2019-01-30T00:19:17.234Z,2.90
2019-01-30T00:21:47.101Z,2.90
2019-01-30T00:24:16.854Z,2.90
2019-01-30T00:26:47.865Z,2.90
2019-01-30T00:29:17.721Z,2.90
2019-01-30T00:31:47.679Z,2.80
2019-01-30T00:34:17.581Z,2.80
2019-01-30T00:36:48.592Z,2.70
2019-01-30T00:39:18.363Z,2.70
2019-01-30T00:41:48.273Z,2.60
2019-01-30T00:44:18.045Z,2.60
2019-01-30T00:46:49.962Z,2.60
2019-01-30T00:49:19.728Z,2.60
2019-01-30T00:51:49.592Z,2.50
2019-01-30T00:54:19.339Z,2.50
2019-01-30T00:56:50.278Z,2.40
2019-01-30T00:59:20.039Z,2.30
2019-01-30T01:01:49.885Z,2.20
2019-01-30T01:04:19.747Z,2.10
2019-01-30T01:06:50.721Z,2.10
2019-01-30T01:09:20.607Z,2.10
2019-01-30T01:11:50.624Z,2.20
2019-01-30T01:14:20.498Z,2.30
2019-01-30T01:16:51.426Z,2.40
2019-01-30T01:19:21.498Z,2.40
2019-01-30T01:21:51.399Z,2.40
2019-01-30T01:24:21.425Z,2.40
2019-01-30T01:26:52.459Z,2.30
2019-01-30T01:29:22.470Z,2.20
2019-01-30T01:31:52.440Z,2.20
2019-01-30T01:34:22.508Z,2.10
2019-01-30T01:36:55.140Z,2.00
2019-01-30T01:39:25.039Z,1.90
2019-01-30T01:41:54.994Z,1.90
2019-01-30T01:44:24.914Z,1.80
2019-01-30T01:46:56.944Z,1.80
2019-01-30T01:49:26.880Z,1.80
2019-01-30T01:51:56.749Z,1.80
2019-01-30T01:54:26.769Z,1.80
2019-01-30T01:56:57.981Z,1.80
2019-01-30T01:59:27.992Z,1.70
2019-01-30T02:01:57.978Z,1.70
2019-01-30T02:04:27.966Z,1.80
2019-01-30T02:06:59.062Z,1.70
2019-01-30T02:09:29.071Z,1.70
2019-01-30T02:11:59.122Z,1.70
2019-01-30T02:14:29.161Z,1.60
2019-01-30T02:17:00.255Z,1.70
2019-01-30T02:19:30.196Z,1.70
2019-01-30T02:22:00.209Z,1.70
2019-01-30T02:24:30.232Z,1.70
2019-01-30T02:27:01.359Z,1.70
2019-01-30T02:29:31.507Z,1.70
2019-01-30T02:32:01.492Z,1.60
2019-01-30T02:34:31.526Z,1.60
2019-01-30T02:37:02.639Z,1.60
2019-01-30T02:39:32.643Z,1.60
2019-01-30T02:42:02.718Z,1.60
2019-01-30T02:44:32.704Z,1.70
2019-01-30T02:47:04.742Z,1.70
2019-01-30T02:49:34.744Z,1.70
2019-01-30T02:52:04.642Z,1.70
2019-01-30T02:54:34.652Z,1.70
2019-01-30T02:57:05.861Z,1.80
2019-01-30T02:59:35.880Z,1.80
2019-01-30T03:02:07.450Z,1.90
2019-01-30T03:04:37.483Z,1.90
2019-01-30T03:07:08.565Z,2.00
2019-01-30T03:09:38.532Z,2.00
2019-01-30T03:12:08.571Z,1.90
2019-01-30T03:14:38.478Z,1.90
2019-01-30T03:17:09.506Z,1.80
2019-01-30T03:19:39.392Z,1.80
2019-01-30T03:22:09.371Z,1.70
2019-01-30T03:24:39.266Z,1.70
2019-01-30T03:27:10.409Z,1.70
2019-01-30T03:29:40.307Z,1.80
2019-01-30T03:32:10.306Z,1.80
2019-01-30T03:34:40.232Z,1.70
2019-01-30T03:37:11.414Z,1.70
2019-01-30T03:39:41.393Z,1.80
2019-01-30T03:42:11.369Z,1.80
2019-01-30T03:44:41.155Z,1.80
2019-01-30T03:47:13.122Z,1.90
2019-01-30T03:49:42.867Z,2.00
2019-01-30T03:52:12.713Z,2.00
2019-01-30T03:54:42.576Z,2.00
2019-01-30T03:57:13.464Z,2.10
2019-01-30T03:59:43.339Z,2.00
2019-01-30T04:02:13.236Z,2.00
2019-01-30T04:04:43.209Z,2.00
2019-01-30T04:07:14.157Z,2.00
2019-01-30T04:09:44.049Z,2.00
2019-01-30T04:12:13.960Z,2.00
2019-01-30T04:14:43.851Z,2.00
2019-01-30T04:17:14.743Z,2.00
2019-01-30T04:19:44.619Z,2.10
2019-01-30T04:22:14.478Z,2.10
2019-01-30T04:24:44.380Z,2.00
2019-01-30T04:27:26.289Z,2.00
2019-01-30T04:29:56.249Z,2.00
2019-01-30T04:32:26.283Z,2.00
2019-01-30T04:34:56.655Z,2.00
2019-01-30T04:37:29.296Z,2.00
2019-01-30T04:40:12.432Z,2.10
2019-01-30T04:42:42.560Z,2.20
2019-01-30T04:45:15.356Z,2.30
2019-01-30T04:47:50.757Z,2.30
2019-01-30T04:50:22.021Z,2.40
2019-01-30T04:52:53.461Z,2.50
2019-01-30T04:55:23.679Z,2.60
2019-01-30T04:57:58.096Z,2.60
2019-01-30T05:00:27.132Z,2.70
2019-01-30T05:02:58.851Z,2.70
2019-01-30T05:05:29.172Z,2.90
2019-01-30T05:07:59.191Z,2.90
2019-01-30T05:10:30.843Z,2.90
2019-01-30T05:13:00.966Z,2.90
2019-01-30T05:15:51.460Z,2.90
2019-01-30T05:18:21.681Z,2.90
2019-01-30T05:20:51.803Z,3.00
2019-01-30T05:23:21.923Z,3.00
2019-01-30T05:26:11.290Z,2.90
2019-01-30T05:28:41.512Z,2.90
2019-01-30T05:31:11.530Z,2.90
2019-01-30T05:33:41.655Z,2.90
2019-01-30T05:36:13.237Z,2.90
2019-01-30T05:38:43.124Z,2.80
2019-01-30T05:41:12.907Z,2.80
2019-01-30T05:43:42.820Z,2.80
2019-01-30T05:46:13.731Z,2.80
2019-01-30T05:48:44.542Z,2.80
2019-01-30T05:51:14.438Z,2.90
2019-01-30T05:53:44.333Z,2.90
2019-01-30T05:56:15.353Z,2.90
2019-01-30T05:58:45.200Z,2.90
2019-01-30T06:01:15.095Z,3.00
2019-01-30T06:03:45.059Z,2.90
2019-01-30T06:06:16.118Z,2.90
2019-01-30T06:08:45.983Z,2.90
2019-01-30T06:11:15.861Z,3.00
2019-01-30T06:13:45.872Z,3.10
2019-01-30T06:16:16.699Z,3.10
2019-01-30T06:18:46.537Z,3.00
2019-01-30T06:21:16.317Z,3.00
2019-01-30T06:23:46.167Z,3.00
2019-01-30T06:26:17.071Z,3.00
2019-01-30T06:28:47.245Z,2.90
2019-01-30T06:31:17.489Z,3.00
2019-01-30T06:33:47.590Z,3.10
2019-01-30T06:36:19.071Z,3.00
2019-01-30T06:38:49.257Z,3.10
2019-01-30T06:41:19.374Z,3.00
2019-01-30T06:44:01.705Z,3.00
2019-01-30T06:46:32.823Z,3.00
2019-01-30T06:49:04.072Z,3.00
2019-01-30T06:51:34.235Z,3.00
2019-01-30T06:54:04.621Z,3.00
2019-01-30T06:56:35.866Z,3.00
2019-01-30T06:59:06.084Z,3.00
2019-01-30T07:01:36.106Z,3.00
2019-01-30T07:04:06.634Z,3.00
2019-01-30T07:06:37.977Z,3.00
2019-01-30T07:09:10.221Z,3.10
2019-01-30T07:11:40.266Z,3.10
2019-01-30T07:14:10.516Z,3.20
2019-01-30T07:16:42.757Z,3.20
2019-01-30T07:19:12.978Z,3.30
2019-01-30T07:21:43.070Z,3.30
2019-01-30T07:24:13.320Z,3.30
2019-01-30T07:26:55.028Z,3.30
2019-01-30T07:29:25.232Z,3.40
2019-01-30T07:31:55.354Z,3.40
2019-01-30T07:34:25.573Z,3.40
2019-01-30T07:36:57.741Z,3.50
2019-01-30T07:39:28.062Z,3.50
2019-01-30T07:41:58.238Z,3.50
2019-01-30T07:44:29.162Z,3.50
2019-01-30T07:46:59.949Z,3.50
2019-01-30T07:49:30.808Z,3.50
2019-01-30T07:52:00.563Z,3.50
2019-01-30T07:54:30.436Z,3.60
2019-01-30T07:57:01.226Z,3.70
2019-01-30T07:59:32.063Z,3.70
2019-01-30T08:02:02.182Z,3.70
2019-01-30T08:04:32.107Z,3.80
2019-01-30T08:07:03.216Z,3.80
2019-01-30T08:09:33.193Z,3.80
2019-01-30T08:12:02.950Z,3.80
2019-01-30T08:14:32.859Z,3.70
2019-01-30T08:17:03.935Z,3.70
2019-01-30T08:19:33.806Z,3.70
2019-01-30T08:22:03.684Z,3.70
2019-01-30T08:24:33.567Z,3.80
2019-01-30T08:27:05.065Z,3.80
2019-01-30T08:29:35.261Z,3.80
2019-01-30T08:32:05.633Z,3.80
2019-01-30T08:34:35.573Z,3.90
2019-01-30T08:37:07.450Z,3.90
2019-01-30T08:39:37.296Z,4.00
2019-01-30T08:42:07.180Z,4.00
2019-01-30T08:44:46.721Z,4.10
2019-01-30T08:47:10.802Z,4.20
2019-01-30T08:49:41.684Z,4.30
2019-01-30T08:52:12.662Z,4.40
2019-01-30T08:54:42.509Z,4.50
2019-01-30T08:57:13.501Z,4.60
2019-01-30T08:59:43.467Z,4.70
2019-01-30T09:02:13.330Z,4.70
2019-01-30T09:04:43.190Z,4.70
2019-01-30T09:07:14.165Z,4.70
2019-01-30T09:09:43.999Z,4.80
2019-01-30T09:12:13.750Z,4.80
2019-01-30T09:14:43.669Z,4.80
2019-01-30T09:17:14.532Z,4.80
2019-01-30T09:19:44.408Z,4.90
2019-01-30T09:22:14.181Z,4.90
2019-01-30T09:24:44.049Z,4.90
2019-01-30T09:27:14.978Z,4.90
2019-01-30T09:29:44.833Z,4.90
2019-01-30T09:32:14.724Z,5.00
2019-01-30T09:34:44.478Z,5.00
2019-01-30T09:37:15.494Z,5.00
2019-01-30T09:39:45.367Z,5.00
2019-01-30T09:42:15.323Z,4.90
2019-01-30T09:44:45.113Z,4.90
2019-01-30T09:47:16.172Z,4.90
2019-01-30T09:49:46.988Z,4.80
2019-01-30T09:52:26.464Z,4.80
2019-01-30T09:54:48.272Z,4.90
2019-01-30T09:57:19.232Z,4.80
2019-01-30T09:59:48.992Z,4.90
2019-01-30T10:02:18.812Z,4.80
2019-01-30T10:04:48.728Z,4.80
2019-01-30T10:07:19.630Z,4.90
2019-01-30T10:09:49.498Z,4.90
2019-01-30T10:12:19.253Z,4.80
2019-01-30T10:14:49.125Z,4.70
2019-01-30T10:17:19.989Z,4.80
2019-01-30T10:19:49.834Z,4.90
2019-01-30T10:22:19.629Z,4.90
2019-01-30T10:24:50.576Z,5.00
2019-01-30T10:27:21.616Z,5.10
2019-01-30T10:29:51.474Z,5.20
2019-01-30T10:32:21.251Z,5.10
2019-01-30T10:34:51.131Z,5.10
2019-01-30T10:37:23.004Z,5.20
2019-01-30T10:39:52.857Z,5.10
2019-01-30T10:42:22.643Z,5.20
2019-01-30T10:44:52.617Z,5.10
2019-01-30T10:47:23.643Z,5.20
2019-01-30T10:49:54.590Z,5.20
2019-01-30T10:52:24.447Z,5.00
2019-01-30T10:54:54.303Z,5.00
2019-01-30T10:57:25.202Z,5.00
2019-01-30T10:59:55.053Z,5.20
2019-01-30T11:02:24.821Z,5.30
2019-01-30T11:04:54.957Z,5.40
2019-01-30T11:07:26.099Z,5.50
2019-01-30T11:09:56.357Z,5.60
2019-01-30T11:12:26.562Z,5.60
2019-01-30T11:14:56.766Z,5.80
2019-01-30T11:17:28.011Z,5.80
2019-01-30T11:19:58.334Z,5.80
2019-01-30T11:22:28.249Z,5.90
2019-01-30T11:24:58.606Z,6.00
2019-01-30T11:27:29.717Z,6.00
2019-01-30T11:30:00.093Z,6.00
2019-01-30T11:32:30.287Z,6.10
2019-01-30T11:35:00.486Z,6.00
2019-01-30T11:37:31.832Z,5.90
2019-01-30T11:40:22.754Z,6.00
2019-01-30T11:42:57.486Z,5.90
2019-01-30T11:45:39.874Z,5.80
2019-01-30T11:48:09.779Z,5.80
2019-01-30T11:50:40.227Z,5.60
2019-01-30T11:53:10.232Z,5.60
2019-01-30T11:55:40.207Z,5.60
2019-01-30T11:58:10.069Z,5.50
2019-01-30T12:00:41.533Z,5.50
2019-01-30T12:03:12.959Z,5.50
2019-01-30T12:05:44.447Z,5.40
2019-01-30T12:08:14.330Z,5.40
2019-01-30T12:10:44.266Z,5.40
2019-01-30T12:13:14.039Z,5.40
2019-01-30T12:15:44.943Z,5.40
2019-01-30T12:18:14.933Z,5.40
2019-01-30T12:20:44.705Z,5.40
2019-01-30T12:23:16.708Z,5.30
2019-01-30T12:25:47.521Z,5.30
2019-01-30T12:28:18.617Z,5.30
2019-01-30T12:30:48.414Z,5.30
2019-01-30T12:33:18.297Z,5.30
2019-01-30T12:35:48.281Z,5.30
2019-01-30T12:38:18.164Z,5.30
2019-01-30T12:40:47.945Z,5.30
2019-01-30T12:43:17.773Z,5.30
2019-01-30T12:45:48.643Z,5.30
2019-01-30T12:48:18.482Z,5.20
2019-01-30T12:50:50.305Z,5.20
2019-01-30T12:53:20.180Z,5.10
2019-01-30T12:55:50.094Z,5.10
2019-01-30T12:58:19.863Z,5.20
2019-01-30T13:00:49.713Z,5.20
2019-01-30T13:03:19.663Z,5.10
2019-01-30T13:05:49.441Z,5.00
2019-01-30T13:08:19.314Z,5.00
2019-01-30T13:10:49.146Z,4.90
2019-01-30T13:13:18.909Z,4.80
2019-01-30T13:15:49.817Z,4.80
2019-01-30T13:18:19.663Z,4.80
2019-01-30T13:20:49.517Z,4.70
2019-01-30T13:23:19.405Z,4.60
2019-01-30T13:25:50.332Z,4.50
2019-01-30T13:28:20.148Z,4.40
2019-01-30T13:31:02.672Z,4.30
2019-01-30T13:33:32.545Z,4.30
2019-01-30T13:36:03.628Z,4.20
2019-01-30T13:38:33.485Z,4.10
2019-01-30T13:41:03.392Z,4.10
2019-01-30T13:43:33.370Z,4.10
2019-01-30T13:46:05.398Z,4.00
2019-01-30T13:48:37.006Z,4.10
2019-01-30T13:51:07.842Z,4.10
2019-01-30T13:53:39.638Z,4.00
2019-01-30T13:56:11.681Z,4.00
2019-01-30T13:58:42.702Z,4.00
2019-01-30T14:01:17.642Z,3.90
2019-01-30T14:03:44.363Z,3.90
2019-01-30T14:06:15.472Z,3.80
2019-01-30T14:08:45.414Z,3.80
2019-01-30T14:11:15.395Z,3.70
2019-01-30T14:13:45.386Z,3.70
2019-01-30T14:16:16.304Z,3.70
2019-01-30T14:18:46.330Z,3.70
2019-01-30T14:21:16.185Z,3.70
2019-01-30T14:23:46.047Z,3.60
2019-01-30T14:26:17.099Z,3.60
2019-01-30T14:28:46.939Z,3.60
2019-01-30T14:31:16.794Z,3.60
2019-01-30T14:33:46.801Z,3.60
2019-01-30T14:36:18.035Z,3.60
2019-01-30T14:38:48.109Z,3.60
2019-01-30T14:41:37.350Z,3.60
2019-01-30T14:44:07.297Z,3.60
2019-01-30T14:46:38.161Z,3.50
2019-01-30T14:49:09.268Z,3.60
2019-01-30T14:51:40.016Z,3.60
2019-01-30T14:54:09.947Z,3.60
2019-01-30T14:56:40.836Z,3.50
2019-01-30T14:59:10.738Z,3.40
2019-01-30T15:01:40.621Z,3.40
2019-01-30T15:04:10.567Z,3.50
2019-01-30T15:06:41.416Z,3.40
2019-01-30T15:09:11.351Z,3.40
2019-01-30T15:11:41.296Z,3.40
2019-01-30T15:14:11.560Z,3.40
2019-01-30T15:16:42.512Z,3.40
2019-01-30T15:19:12.588Z,3.30
2019-01-30T15:21:42.473Z,3.30
2019-01-30T15:24:12.440Z,3.30
2019-01-30T15:26:43.373Z,3.40
2019-01-30T15:29:13.327Z,3.40
2019-01-30T15:31:43.091Z,3.40
2019-01-30T15:34:12.969Z,3.30
2019-01-30T15:36:44.053Z,3.30
2019-01-30T15:39:13.926Z,3.30
2019-01-30T15:41:44.018Z,3.30
2019-01-30T15:44:13.900Z,3.30
2019-01-30T15:46:44.855Z,3.30
2019-01-30T15:49:14.615Z,3.30
2019-01-30T15:51:45.499Z,3.30
2019-01-30T15:54:15.356Z,3.20
2019-01-30T15:56:46.328Z,3.20
2019-01-30T15:59:16.100Z,3.20
2019-01-30T16:01:45.964Z,3.20
2019-01-30T16:04:17.556Z,3.10
2019-01-30T16:06:48.446Z,3.10
2019-01-30T16:09:18.423Z,3.10
2019-01-30T16:11:50.415Z,3.10
2019-01-30T16:14:19.690Z,3.10
2019-01-30T16:16:50.629Z,3.10
2019-01-30T16:19:20.415Z,3.10
2019-01-30T16:21:50.335Z,3.10
2019-01-30T16:24:20.116Z,3.10
2019-01-30T16:26:51.060Z,3.10
2019-01-30T16:29:21.011Z,3.20
2019-01-30T16:31:50.766Z,3.20
2019-01-30T16:34:20.557Z,3.20
2019-01-30T16:36:52.532Z,3.20
2019-01-30T16:39:22.413Z,3.10
2019-01-30T16:41:52.375Z,3.10
2019-01-30T16:44:22.237Z,3.10
2019-01-30T16:46:53.170Z,3.10
2019-01-30T16:49:23.052Z,3.10
2019-01-30T16:51:53.998Z,3.00
2019-01-30T16:54:23.857Z,3.00
2019-01-30T16:57:05.854Z,3.00
2019-01-30T16:59:35.822Z,3.00
2019-01-30T17:02:05.803Z,3.00
2019-01-30T17:04:35.675Z,3.10
2019-01-30T17:07:06.719Z,3.00
2019-01-30T17:09:36.572Z,3.00
2019-01-30T17:12:06.529Z,3.00
2019-01-30T17:14:36.386Z,3.00
2019-01-30T17:17:07.373Z,3.00
2019-01-30T17:19:37.160Z,2.90
2019-01-30T17:22:07.092Z,2.90
2019-01-30T17:24:36.875Z,3.00
2019-01-30T17:27:26.387Z,3.00
2019-01-30T17:29:56.255Z,3.00
2019-01-30T17:32:26.165Z,3.00
2019-01-30T17:34:56.124Z,3.10
2019-01-30T17:37:27.193Z,3.10
2019-01-30T17:39:57.079Z,3.20
2019-01-30T17:42:26.953Z,3.20
2019-01-30T17:44:56.796Z,3.20
2019-01-30T17:47:27.683Z,3.20
2019-01-30T17:49:58.881Z,3.10
2019-01-30T17:52:30.829Z,3.10
2019-01-30T17:55:00.722Z,3.10
2019-01-30T17:57:30.991Z,3.00
2019-01-30T18:00:17.057Z,3.00
2019-01-30T18:02:48.037Z,3.00
2019-01-30T18:05:18.042Z,3.00
2019-01-30T18:07:47.937Z,3.00
2019-01-30T18:10:18.025Z,3.10
2019-01-30T18:12:48.304Z,3.10
2019-01-30T18:15:18.269Z,3.20
2019-01-30T18:17:48.174Z,3.20
2019-01-30T18:20:24.107Z,3.20
2019-01-30T18:22:54.084Z,3.20
2019-01-30T18:25:24.110Z,3.20
2019-01-30T18:27:54.085Z,3.20
2019-01-30T18:30:24.944Z,3.30
2019-01-30T18:32:54.934Z,3.30
2019-01-30T18:35:24.927Z,3.30
2019-01-30T18:37:54.977Z,3.40
2019-01-30T18:40:29.753Z,3.40
2019-01-30T18:42:59.829Z,3.40
2019-01-30T18:45:29.657Z,3.40
2019-01-30T18:47:59.832Z,3.40
2019-01-30T18:50:30.410Z,3.40
2019-01-30T18:53:01.332Z,3.40
2019-01-30T18:55:31.220Z,3.40
2019-01-30T18:58:01.327Z,3.40
2019-01-30T19:00:33.942Z,3.30
2019-01-30T19:03:05.642Z,3.40
2019-01-30T19:05:35.522Z,3.30
2019-01-30T19:08:05.469Z,3.30
2019-01-30T19:10:35.591Z,3.30
2019-01-30T19:13:05.817Z,3.30
2019-01-30T19:15:35.788Z,3.30
2019-01-30T19:18:06.056Z,3.40
2019-01-30T19:20:38.399Z,3.30
2019-01-30T19:23:08.344Z,3.40
2019-01-30T19:25:38.119Z,3.40
2019-01-30T19:28:08.818Z,3.40
2019-01-30T19:30:38.677Z,3.40
2019-01-30T19:33:09.785Z,3.40
2019-01-30T19:35:39.538Z,3.40
2019-01-30T19:38:09.415Z,3.40
2019-01-30T19:40:39.164Z,3.30
2019-01-30T19:43:09.038Z,3.30
2019-01-30T19:45:38.988Z,3.30
2019-01-30T19:48:08.766Z,3.30
2019-01-30T19:50:38.636Z,3.30
2019-01-30T19:53:09.788Z,3.30
2019-01-30T19:55:39.955Z,3.30
2019-01-30T19:58:12.203Z,3.30
2019-01-30T20:00:44.053Z,3.30
2019-01-30T20:03:17.974Z,3.30
2019-01-30T20:05:49.587Z,3.30
2019-01-30T20:08:19.805Z,3.30
2019-01-30T20:10:49.828Z,3.30
2019-01-30T20:13:20.147Z,3.30
2019-01-30T20:15:50.509Z,3.40
2019-01-30T20:18:20.678Z,3.40
2019-01-30T20:20:51.246Z,3.40
2019-01-30T20:23:21.598Z,3.40
2019-01-30T20:25:51.575Z,3.50
2019-01-30T20:28:23.057Z,3.40
2019-01-30T20:30:53.203Z,3.50
2019-01-30T20:33:23.203Z,3.50
2019-01-30T20:35:53.132Z,3.40
2019-01-30T20:38:23.133Z,3.40
2019-01-30T20:40:53.084Z,3.50
2019-01-30T20:43:25.762Z,3.50
2019-01-30T20:45:55.873Z,3.50
2019-01-30T20:48:26.950Z,3.40
2019-01-30T20:50:57.429Z,3.50
2019-01-30T20:53:29.209Z,3.50
2019-01-30T20:55:59.172Z,3.50
2019-01-30T20:58:29.046Z,3.50
2019-01-30T21:00:59.021Z,3.50
2019-01-30T21:03:30.449Z,3.40
2019-01-30T21:06:02.227Z,3.50
2019-01-30T21:08:32.254Z,3.50
2019-01-30T21:11:02.302Z,3.50
2019-01-30T21:13:35.013Z,3.50
2019-01-30T21:16:04.980Z,3.50
2019-01-30T21:19:11.747Z,3.50
2019-01-30T21:21:41.752Z,3.50
2019-01-30T21:24:11.764Z,3.60
2019-01-30T21:26:41.740Z,3.60
2019-01-30T21:29:11.598Z,3.60
2019-01-30T21:32:01.825Z,3.60
2019-01-30T21:34:32.823Z,3.60
2019-01-30T21:37:03.084Z,3.60
2019-01-30T21:39:32.949Z,3.60
2019-01-30T21:42:02.822Z,3.60
2019-01-30T21:44:32.671Z,3.60
2019-01-30T21:47:02.938Z,3.50
2019-01-30T21:49:32.863Z,3.60
2019-01-30T21:52:02.877Z,3.50
2019-01-30T21:54:33.994Z,3.60
2019-01-30T21:57:05.040Z,3.60
2019-01-30T21:59:34.955Z,3.70
2019-01-30T22:02:08.511Z,3.70
2019-01-30T22:04:36.619Z,3.70
2019-01-30T22:07:07.653Z,3.60
2019-01-30T22:09:37.533Z,3.60
2019-01-30T22:12:07.416Z,3.60
2019-01-30T22:14:37.317Z,3.50
2019-01-30T22:17:08.339Z,3.50
2019-01-30T22:19:38.242Z,3.40
2019-01-30T22:22:20.262Z,3.40
2019-01-30T22:24:50.189Z,3.40
2019-01-30T22:27:21.101Z,3.30
2019-01-30T22:29:52.958Z,3.40
2019-01-30T22:32:22.846Z,3.40
2019-01-30T22:34:52.954Z,3.40
2019-01-30T22:37:23.832Z,3.40
2019-01-30T22:39:55.123Z,3.40
2019-01-30T22:42:25.182Z,3.50
2019-01-30T22:44:58.200Z,3.50
2019-01-30T22:47:28.062Z,3.50
2019-01-30T22:49:58.089Z,3.50
2019-01-30T22:52:28.340Z,3.50
2019-01-30T22:55:01.126Z,3.60
2019-01-30T22:57:32.599Z,3.50
2019-01-30T23:00:02.638Z,3.50
2019-01-30T23:02:34.179Z,3.50
2019-01-30T23:05:12.700Z,3.50
2019-01-30T23:07:47.104Z,3.50
2019-01-30T23:10:20.198Z,3.50
2019-01-30T23:13:17.422Z,3.50
2019-01-30T23:16:06.722Z,3.50
2019-01-30T23:18:45.638Z,3.50
2019-01-30T23:21:18.604Z,3.50
2019-01-30T23:24:00.640Z,3.50
2019-01-30T23:26:46.459Z,3.50
2019-01-30T23:29:42.150Z,3.50
2019-01-30T23:32:18.084Z,3.50
2019-01-30T23:35:07.756Z,3.50
2019-01-30T23:38:04.332Z,3.50
2019-01-30T23:40:53.949Z,3.40
2019-01-30T23:43:40.094Z,3.40
2019-01-30T23:46:25.049Z,3.40
2019-01-30T23:49:28.837Z,3.40
2019-01-30T23:52:10.866Z,3.30
2019-01-30T23:55:07.995Z,3.20
2019-01-30T23:57:50.931Z,3.20
